Time;durP1;ratioP1;P1;durP2;ratioP2;P2;SDS_P1;SDS_P2;PMS_P1;PMS_P2;Temp;Humidity;BMP_temperature;BMP_pressure;BME280_temperature;BME280_humidity;BME280_pressure;Samples;Min_cycle;Max_cycle;Signal;HPM_P1;HPM_P2
2021/04/27 00:02:49;;;;;;;31.47;11.33;;;;;;;3.40;56.44;100923.45;5140457;56;1138843;-73
2021/04/27 00:07:55;;;;;;;26.27;11.50;;;;;;;3.29;56.42;100923.91;5140529;56;1139035;-71
2021/04/27 00:13:01;;;;;;;32.57;12.33;;;;;;;3.21;56.77;100925.14;5140505;56;1138979;-73
2021/04/27 00:18:07;;;;;;;34.57;14.43;;;;;;;3.19;56.97;100923.89;5140347;56;1138791;-71
2021/04/27 00:23:12;;;;;;;28.00;12.17;;;;;;;3.23;57.11;100920.67;5140564;56;1138866;-73
2021/04/27 00:28:18;;;;;;;39.10;14.33;;;;;;;3.22;57.04;100918.52;5140424;56;1138809;-70
2021/04/27 00:33:24;;;;;;;39.75;14.58;;;;;;;3.16;57.08;100919.64;5139969;56;1138813;-72
2021/04/27 00:38:32;;;;;;;38.95;15.98;;;;;;;3.10;57.12;100911.19;5140505;56;1138505;-72
2021/04/27 00:43:37;;;;;;;39.07;15.47;;;;;;;3.06;57.23;100909.14;5133812;56;1138716;-70
2021/04/27 00:48:43;;;;;;;36.97;14.63;;;;;;;2.96;56.88;100908.28;5140204;56;1138800;-74
2021/04/27 00:53:51;;;;;;;38.60;13.93;;;;;;;2.72;56.95;100901.82;5140110;56;1138367;-73
2021/04/27 00:58:56;;;;;;;40.77;15.10;;;;;;;2.68;57.46;100898.92;5139843;56;1138380;-71
2021/04/27 01:04:02;;;;;;;44.97;16.27;;;;;;;2.69;57.82;100888.88;5140105;56;1138300;-73
2021/04/27 01:09:18;;;;;;;49.93;18.27;;;;;;;2.72;57.85;100897.91;5140276;56;1138249;-72
2021/04/27 01:14:43;;;;;;;53.38;19.67;;;;;;;2.74;57.95;100886.09;5128302;56;1138557;-72
2021/04/27 01:20:16;;;;;;;55.43;18.63;;;;;;;2.77;57.92;100886.80;5140311;56;1138614;-71
2021/04/27 01:25:51;;;;;;;41.48;16.20;;;;;;;2.79;57.85;100885.44;5128974;56;1138813;-70
2021/04/27 01:30:58;;;;;;;57.00;17.67;;;;;;;2.75;57.72;100882.09;5140403;56;1138735;-69
2021/04/27 01:36:05;;;;;;;44.07;16.07;;;;;;;2.69;57.65;100888.88;5139856;56;1138756;-69
2021/04/27 01:41:14;;;;;;;46.83;16.87;;;;;;;2.39;57.62;100888.75;5141959;55;1139018;-72
2021/04/27 01:46:21;;;;;;;45.75;14.83;;;;;;;2.39;57.62;100888.75;5139927;56;1138640;-73
2021/04/27 01:51:28;;;;;;;42.40;15.05;;;;;;;2.25;57.93;100889.28;5139881;56;1138439;-72
2021/04/27 01:56:47;;;;;;;36.67;15.00;;;;;;;2.17;58.36;100887.39;5144869;56;1138479;-71
2021/04/27 02:01:53;;;;;;;35.40;12.33;;;;;;;2.17;58.46;100890.45;5162099;56;1138655;-73
2021/04/27 02:06:58;;;;;;;37.53;11.50;;;;;;;2.15;58.74;100885.29;5162266;56;1138479;-72
2021/04/27 02:12:05;;;;;;;42.57;11.00;;;;;;;2.06;58.51;100878.66;5162310;56;1138580;-72
2021/04/27 02:17:19;;;;;;;44.90;11.40;;;;;;;1.98;58.89;100871.59;5162184;56;1138751;-72
2021/04/27 02:22:28;;;;;;;45.80;11.30;;;;;;;1.99;59.21;100870.66;5162700;56;1138950;-70
2021/04/27 02:27:38;;;;;;;39.10;10.77;;;;;;;2.05;59.35;100870.89;5157708;56;1138529;-70
2021/04/27 02:32:45;;;;;;;29.93;12.83;;;;;;;2.08;59.35;100861.20;5162168;56;1138633;-70
2021/04/27 02:37:53;;;;;;;27.67;12.27;;;;;;;2.11;59.36;100862.40;5162608;56;1138639;-71
2021/04/27 02:43:13;;;;;;;25.65;12.15;;;;;;;1.96;58.87;100852.98;5161020;56;1138738;-73
2021/04/27 02:48:24;;;;;;;24.65;10.78;;;;;;;1.96;58.87;100852.98;5161267;56;1138384;-73
2021/04/27 02:53:31;;;;;;;35.33;10.63;;;;;;;1.87;59.07;100872.41;5161921;56;1138457;-73
2021/04/27 02:58:37;;;;;;;33.97;11.90;;;;;;;1.70;59.31;100864.34;5161989;56;1138356;-72
2021/04/27 03:03:43;;;;;;;39.57;12.17;;;;;;;1.61;59.65;100868.13;5161896;56;1138360;-72
2021/04/27 03:08:49;;;;;;;43.80;14.07;;;;;;;1.58;59.94;100866.08;5161531;56;1138530;-72
2021/04/27 03:13:56;;;;;;;55.80;15.53;;;;;;;1.55;60.06;100866.18;5162122;56;1138259;-73
2021/04/27 03:19:02;;;;;;;36.10;13.23;;;;;;;1.46;59.78;100873.03;5161933;56;1138225;-72
2021/04/27 03:24:10;;;;;;;29.50;9.70;;;;;;;1.46;60.25;100865.20;5161675;56;1138561;-72
2021/04/27 03:29:16;;;;;;;19.27;9.23;;;;;;;1.48;60.57;100868.62;5162432;56;1136573;-71
2021/04/27 03:34:23;;;;;;;27.82;10.53;;;;;;;1.44;60.51;100873.08;5161598;56;1136600;-70
2021/04/27 03:39:30;;;;;;;35.63;11.57;;;;;;;1.37;60.32;100872.45;5161680;56;1138717;-72
2021/04/27 03:44:36;;;;;;;24.67;11.07;;;;;;;1.36;60.51;100879.02;5161718;56;1138748;-70
2021/04/27 03:49:43;;;;;;;31.10;10.93;;;;;;;1.37;60.86;100881.58;5161826;56;1138531;-72
2021/04/27 03:54:49;;;;;;;26.60;9.93;;;;;;;1.37;60.86;100882.03;5162023;56;1138476;-73
2021/04/27 03:59:55;;;;;;;17.50;8.23;;;;;;;1.35;60.79;100882.52;5154210;56;1136589;-71
2021/04/27 04:05:00;;;;;;;30.83;9.50;;;;;;;1.26;60.61;100878.91;5139594;56;1136465;-72
2021/04/27 04:10:12;;;;;;;32.20;9.67;;;;;;;1.17;61.03;100882.69;5139956;56;1136419;-72
2021/04/27 04:15:20;;;;;;;25.77;11.73;;;;;;;1.21;61.36;100882.99;5140293;56;1136388;-71
2021/04/27 04:20:28;;;;;;;50.70;13.93;;;;;;;1.27;61.57;100889.28;5139609;56;1138687;-72
2021/04/27 04:25:51;;;;;;;41.47;15.13;;;;;;;1.25;61.31;100898.90;5140167;56;1138530;-71
2021/04/27 04:30:57;;;;;;;31.20;11.38;;;;;;;1.23;61.73;100900.70;5139262;56;1138619;-70
2021/04/27 04:36:08;;;;;;;27.77;11.17;;;;;;;1.28;62.36;100905.77;4882324;58;1138720;-73
2021/04/27 04:41:31;;;;;;;29.05;10.80;;;;;;;1.38;62.59;100911.06;4882759;58;1138623;-70
2021/04/27 04:46:55;;;;;;;24.40;9.98;;;;;;;1.45;62.75;100911.27;4882779;58;1138763;-71
2021/04/27 04:52:19;;;;;;;30.33;11.70;;;;;;;1.53;63.17;100915.75;4882924;58;1136732;-72
2021/04/27 04:57:35;;;;;;;33.63;12.43;;;;;;;1.62;63.27;100911.55;4800719;58;1139041;-70
2021/04/27 05:02:41;;;;;;;34.80;13.18;;;;;;;1.65;63.29;100913.20;4883223;58;1138500;-70
2021/04/27 05:08:13;;;;;;;26.07;11.53;;;;;;;1.71;63.79;100916.88;4929995;58;1138493;-72
2021/04/27 05:13:26;;;;;;;28.33;11.70;;;;;;;1.82;64.18;100919.14;4991920;56;1138398;-72
2021/04/27 05:18:32;;;;;;;28.47;13.07;;;;;;;1.90;64.66;100919.25;5093969;56;1138646;-71
2021/04/27 05:23:38;;;;;;;28.20;13.57;;;;;;;1.98;64.86;100915.08;5119617;56;1138743;-72
2021/04/27 05:28:44;;;;;;;52.13;16.60;;;;;;;2.07;64.71;100918.20;5173661;56;1138485;-70
2021/04/27 05:33:49;;;;;;;37.83;14.83;;;;;;;2.22;65.27;100912.88;5173466;56;1138784;-72
2021/04/27 05:38:55;;;;;;;38.30;14.17;;;;;;;2.39;65.50;100912.25;5173567;56;1138955;-71
2021/04/27 05:44:01;;;;;;;36.70;13.23;;;;;;;2.65;65.86;100908.63;5173481;56;1138751;-70
2021/04/27 05:49:07;;;;;;;49.87;16.30;;;;;;;2.94;65.69;100910.09;5173377;56;1138792;-70
2021/04/27 05:54:12;;;;;;;55.07;17.87;;;;;;;3.18;65.65;100910.44;5160636;56;1138818;-70
2021/04/27 05:59:18;;;;;;;35.20;12.73;;;;;;;3.40;65.22;100908.61;5109388;56;1139121;-72
2021/04/27 06:04:24;;;;;;;33.58;11.40;;;;;;;3.52;64.45;100915.09;5097061;56;1138936;-72
2021/04/27 06:09:30;;;;;;;34.17;11.10;;;;;;;3.72;64.87;100915.09;5075036;56;1138674;-71
2021/04/27 06:14:35;;;;;;;36.20;12.90;;;;;;;3.90;64.27;100914.77;5070833;57;1138498;-72
2021/04/27 06:19:41;;;;;;;33.63;13.77;;;;;;;3.98;63.25;100927.50;5085132;56;1138504;-71
2021/04/27 06:24:47;;;;;;;31.53;12.80;;;;;;;4.12;64.16;100926.00;5075173;57;1138536;-72
2021/04/27 06:29:52;;;;;;;29.40;12.93;;;;;;;4.36;64.28;100924.50;5061074;57;1138254;-72
2021/04/27 06:34:58;;;;;;;27.03;11.30;;;;;;;4.56;63.67;100917.89;4912776;58;1138530;-72
2021/04/27 06:40:05;;;;;;;20.20;9.33;;;;;;;4.84;63.31;100926.61;4919978;58;1138968;-72
2021/04/27 06:45:12;;;;;;;25.73;12.47;;;;;;;5.05;62.10;100922.09;4962176;58;1136499;-71
2021/04/27 06:50:22;;;;;;;17.14;6.00;;;;;;;5.17;62.26;100916.28;4979221;58;1138817;-72
2021/04/27 06:55:28;;;;;;;17.33;6.53;;;;;;;5.27;60.34;100914.44;5013069;57;1136526;-71
2021/04/27 07:00:35;;;;;;;18.05;5.95;;;;;;;5.36;60.29;100918.36;5044007;57;1136505;-70
2021/04/27 07:05:42;;;;;;;7.33;4.17;;;;;;;5.36;58.92;100920.98;5067204;56;1136710;-72
2021/04/27 07:10:48;;;;;;;12.90;3.63;;;;;;;5.38;58.92;100918.29;5087419;56;1134564;-72
2021/04/27 07:15:55;;;;;;;21.70;11.40;;;;;;;5.51;58.75;100914.13;5087344;56;1136452;-73
2021/04/27 07:21:01;;;;;;;21.37;10.10;;;;;;;5.63;58.55;100914.84;5087142;56;1138774;-70
2021/04/27 07:26:07;;;;;;;8.28;5.08;;;;;;;5.92;58.93;100912.06;5087491;56;1138708;-71
2021/04/27 07:31:13;;;;;;;5.17;3.63;;;;;;;6.29;56.81;100903.06;5087796;56;1134465;-71
2021/04/27 07:36:21;;;;;;;7.55;3.30;;;;;;;6.56;55.98;100906.00;5097482;56;1134644;-71
2021/04/27 07:41:26;;;;;;;6.30;3.62;;;;;;;6.83;56.30;100898.36;5024937;57;1134757;-72
2021/04/27 07:46:32;;;;;;;5.42;3.55;;;;;;;7.11;54.76;100898.50;5014492;56;1134111;-72
2021/04/27 07:51:38;;;;;;;7.43;3.77;;;;;;;7.11;53.53;100895.02;5021567;56;1134515;-73
2021/04/27 07:56:43;;;;;;;5.40;3.23;;;;;;;7.20;52.23;100892.69;5098468;56;1134419;-74
2021/04/27 08:01:49;;;;;;;4.60;2.80;;;;;;;7.44;53.19;100900.12;5098424;57;1134605;-75
2021/04/27 08:06:55;;;;;;;9.03;3.73;;;;;;;7.59;52.34;100898.75;5103006;56;1134421;-74
2021/04/27 08:12:01;;;;;;;10.47;4.47;;;;;;;7.78;49.70;100902.45;5089465;56;1134279;-75
2021/04/27 08:17:08;;;;;;;10.50;4.27;;;;;;;7.75;49.14;100899.53;5084762;56;1136421;-76
2021/04/27 08:22:13;;;;;;;3.47;2.37;;;;;;;7.79;49.73;100904.63;5073322;57;1136538;-73
2021/04/27 08:27:19;;;;;;;4.97;2.50;;;;;;;7.95;48.04;100907.53;5082376;57;1134073;-74
2021/04/27 08:32:25;;;;;;;9.50;5.25;;;;;;;8.00;48.01;100902.84;5116748;56;1144442;-72
2021/04/27 08:37:31;;;;;;;11.40;6.12;;;;;;;8.07;46.09;100902.86;5108529;56;1134721;-73
2021/04/27 08:42:37;;;;;;;14.53;5.90;;;;;;;7.87;46.14;100912.42;4987768;56;1136807;-74
2021/04/27 08:47:43;;;;;;;4.40;2.23;;;;;;;7.91;47.08;100911.78;4998013;58;1136744;-73
2021/04/27 08:52:49;;;;;;;2.90;2.00;;;;;;;8.08;45.04;100908.51;5040212;57;1134638;-75
2021/04/27 08:57:55;;;;;;;3.53;2.27;;;;;;;8.27;44.76;100904.25;5073154;56;1134638;-72
2021/04/27 09:03:04;;;;;;;2.20;1.73;;;;;;;8.54;47.19;100910.11;5076845;56;1134631;-74
2021/04/27 09:08:11;;;;;;;11.93;2.63;;;;;;;8.86;46.90;100902.80;5078717;56;1134640;-75
2021/04/27 09:13:19;;;;;;;3.07;1.83;;;;;;;9.17;46.54;100900.67;5089029;56;1136497;-72
2021/04/27 09:18:34;;;;;;;6.40;3.58;;;;;;;9.50;45.54;100892.31;5089431;56;1134953;-74
2021/04/27 09:23:44;;;;;;;4.20;2.07;;;;;;;9.75;46.41;100889.35;5089417;56;1134587;-73
2021/04/27 09:28:53;;;;;;;9.40;3.07;;;;;;;9.85;42.62;100886.44;5088720;56;1136679;-73
2021/04/27 09:34:31;;;;;;;2.43;2.13;;;;;;;9.86;42.40;100885.50;5088624;56;1136724;-73
2021/04/27 09:39:50;;;;;;;4.33;2.30;;;;;;;9.84;42.79;100884.27;5088644;56;1136720;-72
2021/04/27 09:44:57;;;;;;;6.30;3.10;;;;;;;10.03;43.79;100873.77;5087743;56;1136744;-72
2021/04/27 09:50:07;;;;;;;4.20;2.43;;;;;;;10.31;42.38;100872.22;5082306;56;1138878;-73
2021/04/27 09:55:22;;;;;;;4.70;2.30;;;;;;;10.64;42.25;100871.61;4998619;56;1138763;-72
2021/04/27 10:00:38;;;;;;;12.55;2.62;;;;;;;10.79;39.37;100870.98;4981887;58;1138760;-74
2021/04/27 10:05:45;;;;;;;3.20;2.30;;;;;;;10.87;39.82;100863.31;5072495;57;1140798;-72
2021/04/27 10:10:52;;;;;;;5.83;1.90;;;;;;;11.07;41.04;100860.53;5055707;57;1138560;-72
2021/04/27 10:15:57;;;;;;;1.53;1.43;;;;;;;11.21;41.60;100861.19;5032930;57;1139106;-74
2021/04/27 10:21:05;;;;;;;2.50;1.80;;;;;;;11.03;39.34;100851.96;5020139;56;1138775;-76
2021/04/27 10:26:11;;;;;;;3.80;2.40;;;;;;;11.04;41.19;100845.71;5039351;56;1138549;-74
2021/04/27 10:31:17;;;;;;;4.20;2.47;;;;;;;11.30;39.24;100839.81;5039611;56;1138500;-76
2021/04/27 10:36:23;;;;;;;5.97;1.57;;;;;;;11.30;37.49;100834.52;5039984;56;1138451;-74
2021/04/27 10:41:57;;;;;;;4.47;2.25;;;;;;;11.23;37.74;100830.15;5039909;57;1138798;-75
2021/04/27 10:47:02;;;;;;;7.50;2.20;;;;;;;10.75;37.25;100824.05;5038331;57;1138292;-72
2021/04/27 10:52:18;;;;;;;4.43;2.27;;;;;;;10.54;37.08;100825.64;4868022;59;1138509;-73
2021/04/27 10:57:24;;;;;;;4.67;2.40;;;;;;;10.53;38.10;100819.50;4845913;59;1138895;-72
2021/04/27 11:02:32;;;;;;;8.03;2.62;;;;;;;10.78;39.41;100809.28;4866489;59;1138639;-74
2021/04/27 11:07:39;;;;;;;12.63;5.90;;;;;;;11.01;38.04;100806.23;4866150;58;1138987;-73
2021/04/27 11:13:00;;;;;;;5.00;2.40;;;;;;;11.32;37.29;100799.95;4926467;58;1142167;-73
2021/04/27 11:18:16;;;;;;;6.03;1.93;;;;;;;11.58;37.34;100785.57;4895904;58;1138846;-75
2021/04/27 11:23:57;;;;;;;9.37;3.00;;;;;;;11.70;36.08;100784.61;4925845;58;1197371;-74
2021/04/27 11:29:08;;;;;;;31.42;22.45;;;;;;;11.73;36.54;100784.86;5036279;57;1138724;-74
2021/04/27 11:34:14;;;;;;;7.33;2.87;;;;;;;11.70;35.77;100771.84;5030725;58;1142915;-75
2021/04/27 11:39:27;;;;;;;4.33;1.97;;;;;;;11.73;35.76;100768.96;4967432;58;1138795;-76
2021/04/27 11:44:34;;;;;;;;;;;;;;;11.79;35.65;100773.80;5022514;58;1138696;-76
2021/04/27 11:50:01;;;;;;;4.33;2.13;;;;;;;11.82;35.11;100780.19;4901992;58;975867;-74
2021/04/27 11:55:15;;;;;;;11.83;6.40;;;;;;;11.61;35.85;100770.73;4882233;59;1136500;-75
2021/04/27 12:00:30;;;;;;;39.43;25.13;;;;;;;11.57;36.69;100770.16;4884697;59;1140601;-75
2021/04/27 12:05:35;;;;;;;3.77;2.72;;;;;;;11.78;35.91;100759.70;4896410;59;1143012;-73
2021/04/27 12:10:41;;;;;;;2.72;2.52;;;;;;;12.10;36.39;100758.47;4896746;59;1138470;-73
2021/04/27 12:16:08;;;;;;;2.30;1.67;;;;;;;12.39;34.75;100755.27;4860156;59;1138574;-73
2021/04/27 12:21:39;;;;;;;3.42;2.67;;;;;;;12.58;34.03;100748.34;4980109;58;1138582;-74
2021/04/27 12:27:06;;;;;;;14.23;8.53;;;;;;;12.75;34.93;100753.59;4892559;59;1138806;-77
2021/04/27 12:32:27;;;;;;;5.13;1.83;;;;;;;12.87;33.00;100745.08;4951797;59;1141046;-74
2021/04/27 12:37:37;;;;;;;7.60;4.80;;;;;;;12.96;34.61;100745.66;4954535;59;1139168;-73
2021/04/27 12:42:55;;;;;;;225.13;80.70;;;;;;;13.13;34.47;100731.80;4950730;59;1139010;-76
2021/04/27 12:48:05;;;;;;;60.60;22.07;;;;;;;13.28;34.26;100731.02;4953471;59;1145188;-75
2021/04/27 12:53:11;;;;;;;5.83;3.27;;;;;;;13.50;34.82;100732.17;4901684;59;1143137;-76
2021/04/27 12:58:23;;;;;;;3.30;2.02;;;;;;;13.78;35.62;100726.62;4875746;60;1138851;-74
2021/04/27 13:03:32;;;;;;;9.73;2.37;;;;;;;13.92;34.37;100717.42;5010036;57;1139141;-74
2021/04/27 13:08:38;;;;;;;4.47;1.95;;;;;;;13.95;34.82;100714.50;4912747;58;1138935;-76
2021/04/27 13:13:43;;;;;;;2.37;1.40;;;;;;;14.02;34.04;100709.84;5044342;57;1139156;-74
2021/04/27 13:18:54;;;;;;;11.83;4.20;;;;;;;13.93;34.84;100705.33;5049843;56;1138846;-75
2021/04/27 13:24:14;;;;;;;2.03;1.80;;;;;;;13.95;33.01;100698.05;4988648;58;1140773;-75
2021/04/27 13:29:24;;;;;;;7.50;3.80;;;;;;;14.09;32.45;100692.83;5045098;56;1138625;-75
2021/04/27 13:34:30;;;;;;;11.73;3.73;;;;;;;14.12;32.93;100689.06;5083171;56;1138777;-75
2021/04/27 13:39:35;;;;;;;1.42;1.32;;;;;;;14.15;33.36;100684.80;5075079;56;1140948;-75
2021/04/27 13:44:41;;;;;;;3.90;2.30;;;;;;;14.23;32.64;100674.30;5090756;56;1138642;-75
2021/04/27 13:49:47;;;;;;;3.60;1.67;;;;;;;14.26;33.17;100666.05;5091918;57;1138559;-75
2021/04/27 13:54:54;;;;;;;6.10;1.87;;;;;;;14.34;33.91;100663.06;5009690;58;1138891;-75
2021/04/27 14:00:00;;;;;;;10.93;2.97;;;;;;;14.43;33.50;100666.23;5009666;58;1138482;-75
2021/04/27 14:05:08;;;;;;;7.20;3.17;;;;;;;14.46;33.52;100659.80;5037242;57;1141059;-75
2021/04/27 14:10:16;;;;;;;10.67;5.57;;;;;;;14.38;31.13;100651.13;5089588;57;1138572;-75
2021/04/27 14:15:25;;;;;;;186.67;64.07;;;;;;;14.29;31.32;100654.64;5086192;57;1140884;-75
2021/04/27 14:20:33;;;;;;;12.57;5.40;;;;;;;14.24;32.17;100645.39;5042921;58;1144925;-76
2021/04/27 14:25:40;;;;;;;7.40;3.17;;;;;;;14.25;32.80;100643.08;5043240;58;1140812;-75
2021/04/27 14:30:46;;;;;;;6.10;1.50;;;;;;;14.21;32.30;100637.19;5043547;58;1138769;-75
2021/04/27 14:35:53;;;;;;;1.70;1.60;;;;;;;14.20;33.41;100633.37;5038195;57;1138535;-75
2021/04/27 14:40:58;;;;;;;2.63;2.13;;;;;;;14.34;33.66;100632.95;5043640;57;1139024;-75
2021/04/27 14:46:04;;;;;;;4.53;1.50;;;;;;;14.45;34.55;100629.33;5047670;56;1138751;-75
2021/04/27 14:51:10;;;;;;;7.00;1.50;;;;;;;14.58;34.35;100622.73;5037025;57;1138633;-75
2021/04/27 14:56:15;;;;;;;1.23;1.13;;;;;;;14.67;33.21;100621.02;5005254;57;1138539;-74
2021/04/27 15:01:21;;;;;;;7.53;3.07;;;;;;;14.70;33.55;100614.92;5045996;57;1138598;-71
2021/04/27 15:06:27;;;;;;;4.80;2.37;;;;;;;14.68;32.74;100613.38;5026421;58;1138921;-73
2021/04/27 15:11:40;;;;;;;6.78;4.12;;;;;;;14.47;32.37;100610.08;5031736;58;1138656;-75
2021/04/27 15:16:43;;;;;;;3.87;2.10;;;;;;;14.16;31.87;100606.20;5021405;57;1138314;-74
2021/04/27 15:21:50;;;;;;;7.87;2.70;;;;;;;13.91;32.45;100599.59;5076157;56;1138330;-74
2021/04/27 15:26:57;;;;;;;8.50;2.63;;;;;;;13.75;32.63;100601.94;4997077;56;1138523;-73
2021/04/27 15:32:03;;;;;;;3.67;2.23;;;;;;;13.69;33.37;100595.87;5062273;56;1138582;-72
2021/04/27 15:37:09;;;;;;;6.07;2.23;;;;;;;13.79;33.27;100593.21;5062080;56;1138568;-73
2021/04/27 15:42:15;;;;;;;3.43;2.27;;;;;;;13.82;33.72;100585.81;5062321;56;1138732;-75
2021/04/27 15:47:20;;;;;;;6.23;2.07;;;;;;;13.91;33.11;100582.31;5062206;56;1138593;-75
2021/04/27 15:52:26;;;;;;;10.47;2.40;;;;;;;13.97;32.16;100572.45;5062306;56;1138632;-74
2021/04/27 15:57:32;;;;;;;7.97;2.50;;;;;;;13.96;32.11;100572.59;5062212;56;1140733;-76
2021/04/27 16:02:38;;;;;;;4.10;2.73;;;;;;;13.88;32.36;100573.80;5073497;56;1138484;-73
2021/04/27 16:07:43;;;;;;;3.22;1.98;;;;;;;13.76;32.78;100566.90;5064452;56;1138430;-73
2021/04/27 16:12:51;;;;;;;7.93;2.00;;;;;;;13.69;32.61;100572.78;5064381;57;1138330;-73
2021/04/27 16:17:57;;;;;;;8.80;2.53;;;;;;;13.65;32.12;100569.20;4901001;59;1138665;-73
2021/04/27 16:23:03;;;;;;;7.77;2.97;;;;;;;13.44;32.02;100566.66;5060762;57;1138838;-73
2021/04/27 16:28:09;;;;;;;11.30;4.17;;;;;;;13.25;32.81;100566.59;4885893;59;1139084;-73
2021/04/27 16:33:15;;;;;;;5.50;4.97;;;;;;;13.17;33.03;100565.09;4983152;57;1140782;-72
2021/04/27 16:38:21;;;;;;;64.93;57.77;;;;;;;13.07;33.21;100572.16;4983378;57;1138773;-73
2021/04/27 16:43:26;;;;;;;16.17;14.53;;;;;;;12.94;33.10;100571.05;5008312;57;1143045;-73
2021/04/27 16:48:32;;;;;;;16.57;8.83;;;;;;;12.82;33.33;100567.66;5051029;57;1143418;-73
2021/04/27 16:53:38;;;;;;;18.57;9.25;;;;;;;12.76;33.72;100564.67;5077499;57;1140916;-73
2021/04/27 16:58:44;;;;;;;33.40;11.22;;;;;;;12.78;33.69;100568.88;5077217;57;1140865;-74
2021/04/27 17:03:49;;;;;;;9.77;5.40;;;;;;;12.80;33.77;100570.92;5077119;57;1143166;-72
2021/04/27 17:08:55;;;;;;;9.10;4.80;;;;;;;12.84;33.89;100568.82;5077164;57;1138777;-73
2021/04/27 17:14:01;;;;;;;9.80;6.47;;;;;;;12.83;33.54;100568.50;5077401;57;1138671;-76
2021/04/27 17:19:07;;;;;;;5.47;3.50;;;;;;;12.75;33.41;100561.66;5075405;57;1138921;-74
2021/04/27 17:24:12;;;;;;;12.40;6.33;;;;;;;12.65;33.73;100565.12;5073258;56;1139080;-74
2021/04/27 17:29:18;;;;;;;7.97;4.30;;;;;;;12.52;33.68;100568.95;5074950;57;1140865;-74
2021/04/27 17:34:26;;;;;;;53.30;14.20;;;;;;;12.41;33.91;100571.64;5075320;57;1138818;-73
2021/04/27 17:39:32;;;;;;;19.20;8.27;;;;;;;12.33;34.19;100567.00;5077004;57;1143240;-76
2021/04/27 17:44:37;;;;;;;13.68;9.58;;;;;;;12.28;34.33;100572.69;4903431;59;1141126;-74
2021/04/27 17:49:43;;;;;;;32.70;19.50;;;;;;;12.20;34.40;100572.98;5069923;57;1141067;-73
2021/04/27 17:54:49;;;;;;;23.43;12.10;;;;;;;12.11;34.58;100570.59;5055011;56;1142982;-73
2021/04/27 17:59:55;;;;;;;12.90;7.33;;;;;;;12.05;34.62;100571.12;5074118;57;1143264;-73
2021/04/27 18:05:01;;;;;;;12.83;6.20;;;;;;;11.90;34.88;100574.55;5046477;57;1140853;-73
2021/04/27 18:10:08;;;;;;;16.77;9.27;;;;;;;11.74;34.96;100570.60;5030728;56;1141073;-71
2021/04/27 18:15:18;;;;;;;26.13;10.97;;;;;;;11.64;35.45;100571.33;5002630;56;1140600;-72
2021/04/27 18:20:25;;;;;;;33.70;10.50;;;;;;;11.52;35.52;100576.78;4848655;59;1142985;-72
2021/04/27 18:25:32;;;;;;;121.65;46.88;;;;;;;11.42;35.86;100574.05;4783466;59;1143488;-74
2021/04/27 18:30:40;;;;;;;185.52;70.17;;;;;;;11.32;36.11;100575.72;4778063;60;1145170;-72
2021/04/27 18:35:46;;;;;;;20.43;9.83;;;;;;;11.25;36.39;100574.06;4776778;60;1145152;-73
2021/04/27 18:40:55;;;;;;;19.00;9.43;;;;;;;11.21;36.25;100587.17;4774051;61;1141057;-72
2021/04/27 18:46:01;;;;;;;34.27;15.48;;;;;;;11.06;36.46;100592.36;4992335;57;1141022;-73
2021/04/27 18:51:07;;;;;;;38.70;18.10;;;;;;;10.92;36.94;100588.63;5050559;57;1142905;-73
2021/04/27 18:56:12;;;;;;;70.77;40.23;;;;;;;10.80;37.28;100591.75;5036511;57;1143043;-73
2021/04/27 19:01:18;;;;;;;111.15;48.20;;;;;;;10.70;37.65;100597.36;5056609;57;1142961;-73
2021/04/27 19:06:24;;;;;;;106.73;40.93;;;;;;;10.64;38.16;100604.47;5057971;57;1145077;-73
2021/04/27 19:11:30;;;;;;;136.73;50.27;;;;;;;10.57;38.53;100601.91;5052064;57;1144723;-73
2021/04/27 19:16:36;;;;;;;152.20;64.20;;;;;;;10.49;39.04;100605.63;4931110;57;1145249;-73
2021/04/27 19:21:43;;;;;;;189.52;75.97;;;;;;;10.39;39.36;100605.47;4921028;57;1145103;-73
2021/04/27 19:26:48;;;;;;;204.35;92.67;;;;;;;10.25;39.82;100608.78;4926102;57;1145434;-73
2021/04/27 19:31:54;;;;;;;169.23;70.30;;;;;;;10.05;40.36;100606.29;5009202;57;1145036;-75
2021/04/27 19:37:00;;;;;;;111.67;39.73;;;;;;;9.86;40.64;100614.24;4903065;58;1143107;-73
2021/04/27 19:42:05;;;;;;;269.43;96.70;;;;;;;9.63;40.84;100608.45;4999312;58;1140894;-73
2021/04/27 19:47:11;;;;;;;178.30;68.10;;;;;;;9.42;41.30;100614.81;4918773;58;1141207;-76
2021/04/27 19:52:17;;;;;;;323.97;124.33;;;;;;;9.24;41.81;100613.94;4875799;58;1140955;-74
2021/04/27 19:57:22;;;;;;;99.43;38.40;;;;;;;9.09;42.17;100617.19;4999255;58;1143215;-74
2021/04/27 20:02:28;;;;;;;165.95;58.68;;;;;;;8.93;42.53;100609.97;4918945;58;1138279;-76
2021/04/27 20:07:34;;;;;;;167.20;54.43;;;;;;;8.80;42.98;100602.91;4999429;58;1140954;-76
2021/04/27 20:12:40;;;;;;;210.23;65.85;;;;;;;8.72;43.37;100605.20;4889120;58;1140943;-74
2021/04/27 20:17:46;;;;;;;340.37;125.80;;;;;;;8.60;43.70;100608.69;4996408;57;1140886;-73
2021/04/27 20:22:52;;;;;;;288.40;117.10;;;;;;;8.42;44.29;100606.81;4916564;58;1142895;-75
2021/04/27 20:27:58;;;;;;;246.17;97.07;;;;;;;8.31;44.75;100608.45;5027227;57;1142970;-75
2021/04/27 20:33:03;;;;;;;294.27;121.27;;;;;;;8.16;44.95;100611.64;5047171;57;1140559;-73
2021/04/27 20:38:09;;;;;;;138.83;57.43;;;;;;;8.13;45.27;100605.25;5015450;58;1142731;-73
2021/04/27 20:43:15;;;;;;;301.90;107.75;;;;;;;8.02;45.40;100611.23;5039322;57;1140841;-73
2021/04/27 20:48:21;;;;;;;357.77;131.77;;;;;;;7.83;45.68;100605.94;5041842;58;1143004;-74
2021/04/27 20:53:26;;;;;;;124.37;45.77;;;;;;;7.78;46.22;100611.99;5043240;58;1142748;-73
2021/04/27 20:58:32;;;;;;;45.27;15.33;;;;;;;7.75;46.70;100605.12;5023135;57;1141074;-73
2021/04/27 21:03:38;;;;;;;81.37;31.53;;;;;;;7.62;47.02;100608.18;5007135;57;1138994;-74
2021/04/27 21:08:43;;;;;;;249.98;98.78;;;;;;;7.48;47.45;100606.43;5007334;57;1138750;-74
2021/04/27 21:13:49;;;;;;;84.57;33.73;;;;;;;7.44;47.77;100605.39;5007450;57;1140849;-73
2021/04/27 21:18:54;;;;;;;68.60;23.17;;;;;;;7.35;47.86;100608.12;5007385;57;1139025;-74
2021/04/27 21:24:02;;;;;;;284.53;103.70;;;;;;;7.25;48.20;100611.80;5007202;57;1138586;-74
2021/04/27 21:29:10;;;;;;;444.80;178.97;;;;;;;7.17;48.34;100610.14;5035337;57;1143054;-74
2021/04/27 21:34:16;;;;;;;349.65;135.63;;;;;;;7.13;48.57;100609.94;4998264;57;1142974;-74
2021/04/27 21:39:22;;;;;;;51.20;17.63;;;;;;;7.11;48.84;100609.19;5080112;56;1143244;-75
2021/04/27 21:44:27;;;;;;;33.03;14.27;;;;;;;7.00;48.92;100609.86;4996399;57;1138970;-74
2021/04/27 21:49:33;;;;;;;35.17;13.93;;;;;;;6.85;49.11;100609.48;5079364;56;1138771;-73
2021/04/27 21:54:38;;;;;;;176.78;94.47;;;;;;;6.72;49.27;100613.79;4995569;57;1138817;-74
2021/04/27 21:59:44;;;;;;;146.77;64.12;;;;;;;6.61;49.47;100614.88;5079143;56;1140929;-74
2021/04/27 22:04:51;;;;;;;77.92;37.83;;;;;;;6.53;49.64;100617.13;4996719;57;1140987;-72
2021/04/27 22:09:57;;;;;;;60.23;27.67;;;;;;;6.47;50.11;100620.95;4996394;57;1139046;-72
2021/04/27 22:15:05;;;;;;;26.27;14.07;;;;;;;6.39;50.15;100617.95;5074109;57;1138749;-73
2021/04/27 22:20:12;;;;;;;48.50;22.70;;;;;;;6.30;50.36;100620.63;4996096;57;1138771;-74
2021/04/27 22:25:20;;;;;;;42.10;27.37;;;;;;;6.21;50.45;100619.02;5078440;56;1138773;-74
2021/04/27 22:30:29;;;;;;;11.57;6.90;;;;;;;6.13;50.69;100617.28;5003322;57;1138883;-74
2021/04/27 22:35:35;;;;;;;28.30;14.13;;;;;;;6.07;50.76;100622.91;5023068;58;1136564;-74
2021/04/27 22:40:41;;;;;;;14.55;7.50;;;;;;;5.90;50.79;100616.83;5023208;58;1138771;-75
2021/04/27 22:45:47;;;;;;;20.65;11.68;;;;;;;5.88;51.10;100624.38;5023398;58;1136445;-73
2021/04/27 22:50:53;;;;;;;45.67;24.37;;;;;;;5.83;51.30;100618.53;5023448;57;1138609;-73
2021/04/27 22:55:59;;;;;;;16.63;7.23;;;;;;;5.82;51.57;100621.61;5013721;58;1138692;-74
2021/04/27 23:01:08;;;;;;;16.27;8.63;;;;;;;5.54;51.46;100614.91;5080998;57;1136439;-72
2021/04/27 23:06:13;;;;;;;17.57;8.63;;;;;;;5.54;51.46;100614.91;5081309;57;1136358;-73
2021/04/27 23:11:19;;;;;;;44.35;22.02;;;;;;;5.45;51.94;100610.18;5081163;57;1136494;-73